Time;durP1;ratioP1;P1;durP2;ratioP2;P2;SDS_P1;SDS_P2;PMS_P1;PMS_P2;Temp;Humidity;BMP_temperature;BMP_pressure;BME280_temperature;BME280_humidity;BME280_pressure;Samples;Min_cycle;Max_cycle;Signal;HPM_P1;HPM_P2
2022/12/21 00:01:51;;;;;;;27.03;16.20;;;6.50;99.90;;;;;;4979598;28;20300;-69
2022/12/21 00:04:17;;;;;;;24.30;16.20;;;6.50;99.90;;;;;;4972889;28;20259;-68
2022/12/21 00:06:44;;;;;;;24.77;16.77;;;6.50;99.90;;;;;;4975076;28;20287;-70
2022/12/21 00:09:12;;;;;;;26.50;16.37;;;6.50;99.90;;;;;;4974532;28;20200;-62
2022/12/21 00:11:38;;;;;;;24.37;17.10;;;6.50;99.90;;;;;;4974913;28;20280;-64
2022/12/21 00:14:04;;;;;;;25.50;16.40;;;6.40;99.90;;;;;;4975074;28;20677;-63
2022/12/21 00:16:33;;;;;;;30.33;17.87;;;6.50;99.90;;;;;;4974761;28;20219;-62
2022/12/21 00:19:00;;;;;;;23.70;16.10;;;6.40;99.90;;;;;;4974704;28;20213;-63
2022/12/21 00:21:28;;;;;;;24.87;16.87;;;6.40;99.90;;;;;;4979452;28;20716;-62
2022/12/21 00:23:58;;;;;;;26.40;16.87;;;6.50;99.90;;;;;;4985263;28;20532;-62
2022/12/21 00:26:24;;;;;;;27.43;18.10;;;6.40;99.90;;;;;;4985561;28;20212;-61
2022/12/21 00:28:52;;;;;;;28.00;16.60;;;6.40;99.90;;;;;;4985301;28;20200;-62
2022/12/21 00:31:20;;;;;;;29.07;17.20;;;6.40;99.90;;;;;;4988635;28;20400;-62
2022/12/21 00:33:47;;;;;;;24.57;16.07;;;6.40;99.90;;;;;;4987778;28;20298;-62
2022/12/21 00:36:14;;;;;;;28.13;17.90;;;6.40;99.90;;;;;;4988142;28;20846;-63
2022/12/21 00:38:41;;;;;;;27.10;17.97;;;6.40;99.90;;;;;;4987534;28;20224;-63
2022/12/21 00:41:10;;;;;;;27.00;16.93;;;6.40;99.90;;;;;;4988010;28;20205;-63
2022/12/21 00:43:37;;;;;;;19.60;14.23;;;6.40;99.90;;;;;;4986655;28;20343;-62
2022/12/21 00:46:03;;;;;;;27.53;16.63;;;6.50;99.90;;;;;;4986745;28;20330;-63
2022/12/21 00:48:30;;;;;;;28.63;18.37;;;6.50;99.90;;;;;;4988383;28;20251;-63
2022/12/21 00:51:04;;;;;;;27.93;18.67;;;6.50;99.90;;;;;;4984921;28;20188;-61
2022/12/21 00:53:29;;;;;;;24.67;17.13;;;6.50;99.90;;;;;;4988789;28;20311;-62
2022/12/21 00:55:56;;;;;;;23.80;16.40;;;6.40;99.90;;;;;;4984642;28;20611;-63
2022/12/21 00:58:23;;;;;;;25.37;17.80;;;6.40;99.90;;;;;;4989135;28;20219;-64
2022/12/21 01:00:50;;;;;;;25.23;17.07;;;6.40;99.90;;;;;;4988597;28;20689;-64
2022/12/21 01:03:16;;;;;;;26.83;16.53;;;6.40;99.90;;;;;;4987688;28;20200;-63
2022/12/21 01:05:48;;;;;;;26.50;16.37;;;6.40;99.90;;;;;;4987171;28;20242;-62
2022/12/21 01:08:14;;;;;;;24.70;16.97;;;6.40;99.90;;;;;;4986858;28;20193;-63
2022/12/21 01:10:40;;;;;;;23.40;16.17;;;6.40;99.90;;;;;;4982458;28;20197;-63
2022/12/21 01:13:05;;;;;;;23.83;16.83;;;6.40;99.90;;;;;;4977972;28;20207;-64
2022/12/21 01:15:31;;;;;;;27.00;16.90;;;6.40;99.90;;;;;;4977011;28;20201;-63
2022/12/21 01:17:57;;;;;;;27.10;17.30;;;6.40;99.90;;;;;;4978094;28;20193;-63
2022/12/21 01:20:22;;;;;;;27.90;17.50;;;6.30;99.90;;;;;;4976289;28;20996;-64
2022/12/21 01:22:48;;;;;;;27.63;18.60;;;6.40;99.90;;;;;;4978643;28;20236;-61
2022/12/21 01:25:13;;;;;;;30.00;18.33;;;6.40;99.90;;;;;;4978283;28;20540;-63
2022/12/21 01:27:39;;;;;;;27.63;17.27;;;6.40;99.90;;;;;;4978453;28;20216;-62
2022/12/21 01:30:05;;;;;;;26.43;18.77;;;6.40;99.90;;;;;;4977729;28;20208;-63
2022/12/21 01:32:31;;;;;;;27.73;18.33;;;6.40;99.90;;;;;;4976598;28;20216;-62
2022/12/21 01:34:56;;;;;;;28.47;17.67;;;6.40;99.90;;;;;;4977367;28;20209;-62
2022/12/21 01:37:22;;;;;;;27.60;19.00;;;6.40;99.90;;;;;;4978000;28;20642;-66
2022/12/21 01:39:48;;;;;;;27.70;17.90;;;6.30;99.90;;;;;;4978164;28;20681;-64
2022/12/21 01:42:13;;;;;;;29.30;18.03;;;6.30;99.90;;;;;;4978553;28;20466;-66
2022/12/21 01:44:51;;;;;;;32.77;18.33;;;6.30;99.90;;;;;;4978138;28;20227;-64
2022/12/21 01:47:21;;;;;;;27.43;16.87;;;6.30;99.90;;;;;;4977880;28;20236;-64
2022/12/21 01:49:54;;;;;;;27.27;16.90;;;6.30;99.90;;;;;;4978018;28;20208;-63
2022/12/21 01:52:20;;;;;;;29.70;19.83;;;6.30;99.90;;;;;;4977367;28;20604;-62
2022/12/21 01:54:57;;;;;;;30.03;19.00;;;6.20;99.90;;;;;;4978120;28;20200;-62
2022/12/21 01:57:23;;;;;;;25.40;18.20;;;6.30;99.90;;;;;;4977662;28;20504;-62
2022/12/21 01:59:56;;;;;;;34.07;18.17;;;6.30;99.90;;;;;;4977681;28;20197;-61
2022/12/21 02:02:26;;;;;;;29.97;19.37;;;6.30;99.90;;;;;;4975447;28;20586;-61
2022/12/21 02:04:53;;;;;;;31.57;17.97;;;6.30;99.90;;;;;;4977841;28;20232;-62
2022/12/21 02:07:21;;;;;;;29.23;19.40;;;6.30;99.90;;;;;;4977419;28;20232;-63
2022/12/21 02:09:47;;;;;;;23.40;17.17;;;6.20;99.90;;;;;;4972577;28;20209;-64
2022/12/21 02:12:15;;;;;;;30.57;19.10;;;6.20;99.90;;;;;;4977622;28;20193;-64
2022/12/21 02:14:44;;;;;;;26.40;18.30;;;6.10;99.90;;;;;;4977477;28;20904;-64
2022/12/21 02:17:21;;;;;;;31.13;19.73;;;6.10;99.90;;;;;;4976138;28;20204;-64
2022/12/21 02:20:22;;;;;;;29.77;20.17;;;6.10;99.90;;;;;;4977792;28;20210;-63
2022/12/21 02:23:38;;;;;;;36.17;22.03;;;6.00;99.90;;;;;;4977972;28;20193;-62
2022/12/21 02:26:25;;;;;;;35.80;21.60;;;6.00;99.90;;;;;;4973510;28;20216;-62
2022/12/21 02:29:28;;;;;;;33.40;20.57;;;6.00;99.90;;;;;;4973024;28;20197;-62
2022/12/21 02:32:00;;;;;;;31.33;19.93;;;6.00;99.90;;;;;;4974618;28;20193;-62
2022/12/21 02:34:48;;;;;;;32.70;21.10;;;6.00;99.90;;;;;;4977324;28;20215;-62
2022/12/21 02:37:22;;;;;;;31.90;19.57;;;6.00;99.90;;;;;;4974793;28;20221;-62
2022/12/21 02:40:01;;;;;;;33.33;20.00;;;6.00;99.90;;;;;;4970554;28;20200;-64
2022/12/21 02:45:34;;;;;;;30.00;19.57;;;6.00;99.90;;;;;;4976800;28;20247;-62
2022/12/21 02:48:26;;;;;;;27.77;18.40;;;6.00;99.90;;;;;;4973487;28;20204;-63
2022/12/21 02:50:59;;;;;;;33.83;20.00;;;6.00;99.90;;;;;;4976824;28;20208;-63
2022/12/21 02:53:36;;;;;;;32.63;21.20;;;6.00;99.90;;;;;;4976722;28;20208;-64
2022/12/21 02:56:02;;;;;;;36.47;20.77;;;6.10;99.90;;;;;;4973011;28;20239;-63
2022/12/21 02:58:27;;;;;;;29.50;21.50;;;6.10;99.90;;;;;;4976409;28;20646;-63
2022/12/21 03:00:53;;;;;;;32.57;19.70;;;6.00;99.90;;;;;;4976385;28;20204;-64
2022/12/21 03:03:54;;;;;;;31.30;20.30;;;6.00;99.90;;;;;;4976188;28;20201;-65
2022/12/21 03:06:57;;;;;;;33.00;20.60;;;6.00;99.90;;;;;;4975942;28;20219;-62
2022/12/21 03:09:38;;;;;;;29.70;18.43;;;6.00;99.90;;;;;;4976130;28;20215;-63
2022/12/21 03:12:40;;;;;;;31.33;18.97;;;6.00;99.90;;;;;;4974400;28;20196;-62
2022/12/21 03:15:24;;;;;;;33.67;20.53;;;6.00;99.90;;;;;;4971695;28;20200;-63
2022/12/21 03:18:16;;;;;;;32.00;19.43;;;6.00;99.90;;;;;;4976141;28;20188;-62
2022/12/21 03:20:49;;;;;;;27.47;18.17;;;6.10;99.90;;;;;;4975286;28;20243;-62
2022/12/21 03:23:27;;;;;;;29.63;20.60;;;6.10;99.90;;;;;;4976928;28;20196;-63
2022/12/21 03:26:09;;;;;;;33.67;20.10;;;6.10;99.90;;;;;;4976436;28;20435;-64
2022/12/21 03:28:38;;;;;;;32.07;19.93;;;6.10;99.90;;;;;;4976350;28;20201;-63
2022/12/21 03:31:10;;;;;;;35.77;21.03;;;6.10;99.90;;;;;;4976957;28;20197;-62
2022/12/21 03:33:41;;;;;;;29.33;20.23;;;6.10;99.90;;;;;;4975742;28;20205;-64
2022/12/21 03:36:15;;;;;;;28.37;19.50;;;6.10;99.90;;;;;;4976814;28;20222;-63
2022/12/21 03:38:45;;;;;;;33.00;20.67;;;6.00;99.90;;;;;;4973615;28;20235;-63
2022/12/21 03:41:17;;;;;;;32.37;20.23;;;6.00;99.90;;;;;;4976316;28;20212;-63
2022/12/21 03:43:46;;;;;;;32.90;20.07;;;6.00;99.90;;;;;;4975777;28;20242;-64
2022/12/21 03:46:33;;;;;;;31.27;20.87;;;6.00;99.90;;;;;;4974056;28;20231;-63
2022/12/21 03:49:05;;;;;;;34.13;20.33;;;6.00;99.90;;;;;;4976281;28;20213;-63
2022/12/21 03:51:51;;;;;;;32.57;21.30;;;6.00;99.90;;;;;;4971373;28;20204;-63
2022/12/21 03:54:48;;;;;;;32.60;19.77;;;6.00;99.90;;;;;;4974703;28;20220;-61
2022/12/21 03:57:15;;;;;;;37.63;20.47;;;6.00;99.90;;;;;;4974626;28;20275;-63
2022/12/21 03:59:42;;;;;;;34.53;21.30;;;6.00;99.90;;;;;;4979619;28;20205;-66
2022/12/21 04:02:18;;;;;;;31.33;21.07;;;5.90;99.90;;;;;;4979554;28;20219;-64
2022/12/21 04:04:56;;;;;;;31.37;20.63;;;5.90;99.90;;;;;;4977669;28;20199;-64
2022/12/21 04:07:25;;;;;;;34.20;21.63;;;5.90;99.90;;;;;;4979347;28;20212;-64
2022/12/21 04:10:05;;;;;;;34.73;20.70;;;6.00;99.90;;;;;;4979264;28;21398;-63
2022/12/21 04:12:37;;;;;;;28.93;20.27;;;5.90;99.90;;;;;;4976265;28;20204;-63
2022/12/21 04:15:18;;;;;;;34.50;20.50;;;5.90;99.90;;;;;;4979370;28;20615;-63
2022/12/21 04:17:46;;;;;;;35.33;22.37;;;5.90;99.90;;;;;;4978993;28;20214;-63
2022/12/21 04:20:17;;;;;;;29.70;20.17;;;5.90;99.90;;;;;;4979742;28;20209;-62
2022/12/21 04:28:28;;;;;;;33.33;20.50;;;6.10;99.90;;;;;;4977710;28;20215;-64
2022/12/21 04:30:55;;;;;;;30.03;19.17;;;6.10;99.90;;;;;;4977867;28;20209;-64
2022/12/21 04:33:23;;;;;;;30.40;19.07;;;6.10;99.90;;;;;;4979200;28;20220;-65
2022/12/21 04:38:36;;;;;;;33.37;20.20;;;6.20;99.90;;;;;;4979087;28;20231;-63
2022/12/21 04:41:03;;;;;;;28.47;20.30;;;6.20;99.90;;;;;;4979416;28;20196;-63
2022/12/21 04:43:28;;;;;;;32.20;21.00;;;6.20;99.90;;;;;;4979140;28;20216;-63
2022/12/21 04:46:05;;;;;;;34.20;21.57;;;6.20;99.90;;;;;;4978854;28;20531;-64
2022/12/21 04:48:31;;;;;;;28.83;18.07;;;6.10;99.90;;;;;;4975988;28;20192;-64
2022/12/21 04:51:03;;;;;;;33.00;20.17;;;6.10;99.90;;;;;;4978847;28;20264;-65
2022/12/21 04:53:28;;;;;;;30.03;20.00;;;6.20;99.90;;;;;;4979205;28;20200;-64
2022/12/21 04:55:54;;;;;;;32.90;20.80;;;6.20;99.90;;;;;;4977704;28;20781;-64
2022/12/21 04:58:19;;;;;;;29.20;21.13;;;6.20;99.90;;;;;;4978907;28;20303;-63
2022/12/21 05:00:45;;;;;;;29.53;19.47;;;6.20;99.90;;;;;;4978621;28;20212;-65
2022/12/21 05:03:10;;;;;;;34.70;19.87;;;6.20;99.90;;;;;;4978936;28;20683;-62
2022/12/21 05:05:36;;;;;;;27.80;18.93;;;6.20;99.90;;;;;;4978274;28;20209;-62
2022/12/21 05:08:01;;;;;;;29.67;19.43;;;6.30;99.90;;;;;;4976731;28;20718;-63
2022/12/21 05:10:27;;;;;;;34.67;21.83;;;6.30;99.90;;;;;;4977337;28;20969;-63
2022/12/21 05:12:52;;;;;;;29.47;20.17;;;6.30;99.90;;;;;;4978097;28;20607;-62
2022/12/21 05:15:18;;;;;;;28.10;19.30;;;6.30;99.90;;;;;;4977949;28;20205;-63
2022/12/21 05:17:43;;;;;;;27.57;19.90;;;6.30;99.90;;;;;;4978100;28;20207;-63
2022/12/21 05:20:09;;;;;;;31.27;20.43;;;6.30;99.90;;;;;;4978182;28;20268;-63
2022/12/21 05:22:35;;;;;;;31.50;20.33;;;6.40;99.90;;;;;;4976441;28;20213;-63
2022/12/21 05:25:00;;;;;;;30.93;20.10;;;6.40;99.90;;;;;;4978286;28;20683;-64
2022/12/21 05:27:25;;;;;;;32.20;19.63;;;6.40;99.90;;;;;;4978264;28;20220;-63
2022/12/21 05:29:51;;;;;;;29.57;20.03;;;6.40;99.90;;;;;;4977950;28;20315;-74
2022/12/21 05:32:16;;;;;;;33.70;19.27;;;6.40;99.90;;;;;;4978173;28;20189;-64
2022/12/21 05:34:42;;;;;;;29.97;20.03;;;6.40;99.90;;;;;;4977960;28;20622;-64
2022/12/21 05:37:08;;;;;;;35.33;21.90;;;6.30;99.90;;;;;;4978335;28;20299;-65
2022/12/21 05:39:33;;;;;;;33.93;21.77;;;6.40;99.90;;;;;;4976449;28;20217;-64
2022/12/21 05:41:59;;;;;;;28.37;18.83;;;6.30;99.90;;;;;;4978069;28;20293;-64
2022/12/21 05:44:24;;;;;;;26.37;18.87;;;6.30;99.90;;;;;;4978112;28;20196;-64
2022/12/21 05:46:50;;;;;;;30.63;20.57;;;6.40;99.90;;;;;;4977840;28;20220;-64
2022/12/21 05:49:15;;;;;;;34.13;21.60;;;6.40;99.90;;;;;;4977990;28;20702;-64
2022/12/21 05:51:41;;;;;;;31.43;20.37;;;6.40;99.90;;;;;;4975902;28;20205;-64
2022/12/21 05:54:06;;;;;;;29.20;21.13;;;6.40;99.90;;;;;;4977981;28;20610;-64
2022/12/21 05:56:34;;;;;;;31.10;19.83;;;6.50;99.90;;;;;;4977816;28;20204;-63
2022/12/21 05:59:00;;;;;;;31.63;20.77;;;6.50;99.90;;;;;;4978088;28;20235;-64
2022/12/21 06:01:25;;;;;;;30.33;19.97;;;6.40;99.90;;;;;;4977825;28;20909;-64
2022/12/21 06:03:51;;;;;;;30.73;20.70;;;6.40;99.90;;;;;;4977449;28;20208;-65
2022/12/21 06:06:17;;;;;;;31.53;19.63;;;6.40;99.90;;;;;;4975784;28;20287;-64
2022/12/21 06:08:43;;;;;;;33.30;19.47;;;6.40;99.90;;;;;;4976904;28;20205;-63
2022/12/21 06:11:15;;;;;;;36.10;22.77;;;6.50;99.90;;;;;;4977208;28;20201;-63
2022/12/21 06:13:40;;;;;;;29.13;19.80;;;6.60;99.90;;;;;;4977165;28;20212;-64
2022/12/21 06:16:09;;;;;;;34.33;21.13;;;6.60;99.90;;;;;;4975389;28;20212;-64
2022/12/21 06:18:35;;;;;;;29.03;21.80;;;6.70;99.90;;;;;;4977318;28;20265;-63
2022/12/21 06:21:01;;;;;;;32.03;18.87;;;6.70;99.90;;;;;;4976954;28;20270;-63
2022/12/21 06:23:26;;;;;;;29.10;19.97;;;6.70;99.90;;;;;;4977450;28;20937;-63
2022/12/21 06:25:56;;;;;;;32.70;20.17;;;6.70;99.90;;;;;;4976889;28;20354;-63
2022/12/21 06:28:23;;;;;;;29.33;19.47;;;6.60;99.90;;;;;;4975013;28;20375;-63
2022/12/21 06:30:50;;;;;;;33.03;21.00;;;6.60;99.90;;;;;;4977059;28;20204;-63
2022/12/21 06:33:16;;;;;;;30.43;21.90;;;6.70;99.90;;;;;;4976750;28;20274;-63
2022/12/21 06:35:41;;;;;;;30.63;20.07;;;6.70;99.90;;;;;;4976577;28;20200;-64
2022/12/21 06:38:07;;;;;;;31.17;21.77;;;6.70;99.90;;;;;;4975589;28;20699;-64
2022/12/21 06:40:33;;;;;;;31.43;21.30;;;6.80;99.90;;;;;;4974038;28;20209;-63
2022/12/21 06:42:58;;;;;;;29.90;20.13;;;6.70;99.90;;;;;;4976468;28;20346;-63
2022/12/21 06:45:24;;;;;;;32.37;22.20;;;6.70;99.90;;;;;;4976216;28;20205;-63
2022/12/21 06:47:54;;;;;;;28.80;20.57;;;6.80;99.90;;;;;;4975759;28;20283;-64
2022/12/21 06:50:20;;;;;;;31.33;22.60;;;6.80;99.90;;;;;;4974102;28;20741;-63
2022/12/21 06:52:49;;;;;;;33.70;23.03;;;6.80;99.90;;;;;;4976594;28;20197;-62
2022/12/21 06:55:15;;;;;;;30.87;21.50;;;6.80;99.90;;;;;;4977117;28;20201;-63
2022/12/21 06:57:41;;;;;;;32.73;21.23;;;6.80;99.90;;;;;;4976340;28;20531;-63
2022/12/21 07:00:09;;;;;;;31.13;22.30;;;6.80;99.90;;;;;;4976360;28;20212;-63
2022/12/21 07:02:35;;;;;;;31.53;21.87;;;6.80;99.90;;;;;;4975449;28;20291;-63
2022/12/21 07:05:01;;;;;;;33.60;22.63;;;6.80;99.90;;;;;;4976094;28;20509;-63
2022/12/21 07:07:26;;;;;;;34.23;24.53;;;6.80;99.90;;;;;;4976639;28;20328;-63
2022/12/21 07:09:52;;;;;;;30.27;22.10;;;6.80;99.90;;;;;;4975826;28;20197;-63
2022/12/21 07:12:17;;;;;;;32.17;21.67;;;6.80;99.90;;;;;;4976829;28;20193;-63
2022/12/21 07:14:43;;;;;;;33.50;23.20;;;6.80;99.90;;;;;;4976422;28;20197;-63
2022/12/21 07:17:09;;;;;;;32.10;22.57;;;6.80;99.90;;;;;;4974605;28;20203;-64
2022/12/21 07:19:35;;;;;;;30.37;21.87;;;6.90;99.90;;;;;;4976644;28;20251;-63
2022/12/21 07:22:00;;;;;;;30.90;22.20;;;6.90;99.90;;;;;;4976347;28;20239;-63
2022/12/21 07:24:26;;;;;;;31.13;21.90;;;6.90;99.90;;;;;;4976575;28;23020;-64
2022/12/21 07:26:51;;;;;;;32.90;22.23;;;6.90;99.90;;;;;;4976444;28;20252;-63
2022/12/21 07:29:17;;;;;;;29.90;21.27;;;6.90;99.90;;;;;;4976369;28;21034;-64
2022/12/21 07:31:42;;;;;;;30.87;21.37;;;7.00;99.90;;;;;;4974263;28;20221;-62
2022/12/21 07:34:08;;;;;;;31.30;21.67;;;7.00;99.90;;;;;;4975595;28;20303;-63
2022/12/21 07:36:33;;;;;;;31.87;22.57;;;7.00;99.90;;;;;;4976475;28;20205;-62
2022/12/21 07:38:59;;;;;;;34.07;21.30;;;7.00;99.90;;;;;;4976377;28;20216;-63
2022/12/21 07:41:24;;;;;;;35.33;22.67;;;7.00;99.90;;;;;;4976306;28;20233;-63
2022/12/21 07:43:50;;;;;;;30.00;22.10;;;7.00;99.90;;;;;;4975029;28;20204;-64
2022/12/21 07:46:16;;;;;;;29.93;21.10;;;7.00;99.90;;;;;;4976274;28;20219;-64
2022/12/21 07:48:42;;;;;;;30.90;21.50;;;7.10;99.90;;;;;;4976123;28;20611;-65
2022/12/21 07:51:08;;;;;;;35.77;21.60;;;7.10;99.90;;;;;;4976540;28;20204;-64
2022/12/21 07:53:34;;;;;;;30.73;21.13;;;7.10;99.90;;;;;;4974706;28;20231;-65
2022/12/21 07:56:12;;;;;;;32.23;22.57;;;7.10;99.90;;;;;;4976516;28;20553;-64
2022/12/21 07:58:37;;;;;;;28.87;20.97;;;7.10;99.90;;;;;;4972698;28;20188;-64
2022/12/21 08:01:17;;;;;;;30.73;21.80;;;7.10;99.90;;;;;;4976233;28;20205;-64
2022/12/21 08:03:47;;;;;;;31.20;21.13;;;7.20;99.90;;;;;;4974221;28;20197;-65
2022/12/21 08:06:13;;;;;;;30.73;20.93;;;7.30;99.90;;;;;;4976080;28;20216;-65
2022/12/21 08:08:39;;;;;;;29.70;20.97;;;7.30;99.90;;;;;;4976260;28;20229;-65
2022/12/21 08:11:14;;;;;;;28.07;21.30;;;7.30;99.90;;;;;;4975599;28;20208;-64
2022/12/21 08:13:43;;;;;;;29.77;20.33;;;7.40;99.90;;;;;;4971921;28;20829;-63
2022/12/21 08:16:11;;;;;;;29.80;21.00;;;7.40;99.90;;;;;;4976227;28;20201;-63
2022/12/21 08:18:39;;;;;;;28.17;20.87;;;7.50;99.90;;;;;;4976671;28;20200;-63
2022/12/21 08:21:05;;;;;;;33.37;21.63;;;7.50;99.90;;;;;;4974537;28;20236;-63
2022/12/21 08:23:31;;;;;;;26.50;20.60;;;7.40;99.90;;;;;;4976985;28;20267;-62
2022/12/21 08:26:01;;;;;;;28.27;21.57;;;7.40;99.90;;;;;;4976415;28;20204;-63
2022/12/21 08:28:27;;;;;;;30.03;22.17;;;7.40;99.90;;;;;;4974235;28;20257;-63
2022/12/21 08:31:00;;;;;;;28.37;20.70;;;7.50;99.90;;;;;;4976669;28;20315;-63
2022/12/21 08:33:26;;;;;;;28.77;18.67;;;7.40;99.90;;;;;;4976275;28;20216;-63
2022/12/21 08:35:51;;;;;;;28.63;20.60;;;7.40;99.90;;;;;;4974239;28;20200;-63
2022/12/21 08:38:17;;;;;;;30.73;21.87;;;7.40;99.90;;;;;;4976578;28;20226;-64
2022/12/21 08:40:42;;;;;;;29.43;21.60;;;7.50;99.90;;;;;;4976168;28;20296;-64
2022/12/21 08:43:07;;;;;;;32.97;22.23;;;7.50;99.90;;;;;;4975938;28;20205;-64
2022/12/21 08:45:33;;;;;;;33.07;21.17;;;7.50;99.90;;;;;;4979224;28;20259;-64
2022/12/21 08:47:58;;;;;;;27.87;20.10;;;7.50;99.90;;;;;;4978958;28;20271;-64
2022/12/21 08:50:24;;;;;;;29.60;21.20;;;7.60;99.90;;;;;;4977166;28;20291;-63
2022/12/21 08:52:49;;;;;;;29.20;20.57;;;7.60;99.90;;;;;;4979267;28;20826;-63
2022/12/21 08:55:15;;;;;;;27.00;21.40;;;7.70;99.90;;;;;;4979151;28;20711;-64
2022/12/21 08:57:40;;;;;;;31.20;20.40;;;7.70;99.90;;;;;;4979088;28;20324;-64
2022/12/21 09:00:09;;;;;;;25.80;18.77;;;7.80;99.90;;;;;;4978017;28;20205;-68
2022/12/21 09:02:35;;;;;;;30.50;21.47;;;7.90;99.90;;;;;;4983983;28;20203;-63
2022/12/21 09:05:01;;;;;;;25.43;19.53;;;7.90;99.90;;;;;;4978104;28;20663;-64
2022/12/21 09:07:26;;;;;;;30.37;20.80;;;7.90;99.90;;;;;;4978346;28;20577;-64
2022/12/21 09:09:52;;;;;;;23.10;18.43;;;7.90;99.90;;;;;;4977879;28;20203;-68
2022/12/21 09:12:17;;;;;;;27.13;21.00;;;7.90;99.90;;;;;;4978647;28;20196;-63
2022/12/21 09:14:43;;;;;;;25.33;19.20;;;7.90;99.90;;;;;;4986848;28;20203;-63
2022/12/21 09:17:09;;;;;;;27.73;19.90;;;7.90;99.90;;;;;;4986949;28;20659;-63
2022/12/21 09:19:34;;;;;;;27.27;20.70;;;7.90;99.90;;;;;;4987540;28;20200;-61
2022/12/21 09:22:00;;;;;;;26.50;19.80;;;7.90;99.90;;;;;;4986106;28;20247;-62
2022/12/21 09:24:26;;;;;;;29.43;20.50;;;7.90;99.90;;;;;;4978035;28;20701;-62
2022/12/21 09:26:51;;;;;;;25.97;21.07;;;7.90;99.90;;;;;;4977976;28;20248;-63
2022/12/21 09:29:17;;;;;;;29.67;19.50;;;7.90;99.90;;;;;;4978318;28;20663;-64
2022/12/21 09:31:42;;;;;;;26.60;19.47;;;7.90;99.90;;;;;;4976132;28;20200;-66
2022/12/21 09:34:08;;;;;;;27.17;20.17;;;7.90;99.90;;;;;;4977542;28;20211;-63
2022/12/21 09:36:33;;;;;;;23.70;19.00;;;7.80;99.90;;;;;;4977915;28;20208;-73
2022/12/21 09:38:59;;;;;;;28.67;18.80;;;7.80;99.90;;;;;;4977749;28;21255;-74
2022/12/21 09:41:32;;;;;;;27.30;19.77;;;7.80;99.90;;;;;;4977577;28;20259;-73
2022/12/21 09:44:08;;;;;;;32.20;20.07;;;7.80;99.90;;;;;;4973536;28;20213;-74
2022/12/21 09:46:39;;;;;;;27.73;20.10;;;7.80;99.90;;;;;;4977783;28;20274;-74
2022/12/21 09:49:10;;;;;;;28.27;19.67;;;7.80;99.90;;;;;;4976393;28;20208;-71
2022/12/21 09:51:36;;;;;;;24.80;19.77;;;7.80;99.90;;;;;;4979311;28;20263;-73
2022/12/21 09:54:12;;;;;;;29.77;20.97;;;7.90;99.90;;;;;;4984843;28;20278;-71
2022/12/21 09:56:40;;;;;;;24.50;19.23;;;7.90;99.90;;;;;;4983053;28;20705;-70
2022/12/21 09:59:11;;;;;;;24.93;20.23;;;8.00;99.90;;;;;;4987304;28;20558;-71
2022/12/21 10:02:09;;;;;;;24.20;17.77;;;8.00;99.90;;;;;;4983494;28;20201;-72
2022/12/21 10:04:52;;;;;;;24.70;19.33;;;8.00;99.90;;;;;;4953825;28;20208;-72
2022/12/21 10:07:55;;;;;;;27.27;18.60;;;8.00;99.90;;;;;;4974735;28;20235;-70
2022/12/21 10:10:28;;;;;;;28.00;19.80;;;8.00;99.90;;;;;;4983742;28;20258;-70
2022/12/21 10:13:04;;;;;;;24.53;18.87;;;8.00;99.90;;;;;;4987607;28;20203;-70
2022/12/21 10:15:51;;;;;;;25.63;19.87;;;8.10;99.90;;;;;;4981651;28;20197;-70
2022/12/21 10:18:49;;;;;;;27.07;19.63;;;8.10;99.90;;;;;;4972964;28;20227;-73
2022/12/21 10:21:40;;;;;;;27.40;20.50;;;8.10;99.90;;;;;;4976557;28;20193;-71
2022/12/21 10:24:18;;;;;;;27.50;19.23;;;8.00;99.90;;;;;;4972747;28;20224;-71
2022/12/21 10:26:45;;;;;;;26.77;20.27;;;8.00;99.90;;;;;;4976230;28;20697;-73
2022/12/21 10:29:19;;;;;;;27.07;20.50;;;8.00;99.90;;;;;;4973110;28;20197;-73
2022/12/21 10:31:46;;;;;;;27.20;18.50;;;8.10;99.90;;;;;;4976388;28;20700;-71
2022/12/21 10:34:18;;;;;;;26.63;20.13;;;8.10;99.90;;;;;;4978462;28;20204;-77
2022/12/21 10:36:46;;;;;;;28.03;21.53;;;8.20;99.90;;;;;;4979238;28;20216;-70
2022/12/21 10:39:15;;;;;;;24.53;18.70;;;8.30;99.90;;;;;;4976914;28;20561;-68
2022/12/21 10:41:50;;;;;;;24.93;18.70;;;8.30;99.90;;;;;;4976921;28;20315;-69
2022/12/21 10:44:16;;;;;;;23.83;17.90;;;8.40;99.90;;;;;;4976690;28;20536;-69
2022/12/21 10:46:42;;;;;;;26.83;18.77;;;8.30;99.90;;;;;;4976221;28;20232;-68
2022/12/21 10:49:31;;;;;;;18.93;16.87;;;8.30;99.90;;;;;;4976688;28;20196;-71
2022/12/21 10:51:57;;;;;;;24.03;18.37;;;8.40;99.90;;;;;;4972885;28;20208;-76
2022/12/21 10:54:27;;;;;;;22.87;19.17;;;8.40;99.90;;;;;;4980580;28;20199;-75
2022/12/21 10:56:56;;;;;;;25.50;18.43;;;8.40;99.90;;;;;;4982574;28;20200;-77
2022/12/21 10:59:30;;;;;;;26.73;19.20;;;8.40;99.90;;;;;;4978612;28;20227;-78
2022/12/21 11:01:56;;;;;;;26.13;21.00;;;8.40;99.90;;;;;;4977418;28;20258;-77
2022/12/21 11:04:21;;;;;;;25.17;19.07;;;8.50;99.90;;;;;;4976741;28;20200;-70
2022/12/21 11:07:24;;;;;;;23.13;17.57;;;8.50;99.90;;;;;;4976112;28;20299;-69
2022/12/21 11:09:58;;;;;;;25.63;18.30;;;8.50;99.90;;;;;;4972643;28;20216;-72
2022/12/21 11:12:25;;;;;;;23.03;19.20;;;8.60;99.90;;;;;;4976610;28;20203;-71
2022/12/21 11:14:52;;;;;;;26.23;19.17;;;8.60;99.90;;;;;;4976545;28;20201;-70
2022/12/21 11:17:25;;;;;;;26.63;17.43;;;8.70;99.90;;;;;;4975780;28;20283;-71
2022/12/21 11:20:00;;;;;;;25.17;17.87;;;8.80;99.90;;;;;;4972523;28;20679;-72
2022/12/21 11:22:28;;;;;;;22.00;17.37;;;8.90;99.90;;;;;;4976140;28;20567;-71
2022/12/21 11:24:57;;;;;;;26.80;19.10;;;8.90;99.90;;;;;;4976510;28;20291;-70
2022/12/21 11:27:29;;;;;;;24.83;18.33;;;9.00;99.90;;;;;;4976061;28;20527;-71
2022/12/21 11:30:08;;;;;;;24.70;19.07;;;9.00;99.90;;;;;;4976447;28;20339;-75
2022/12/21 11:32:35;;;;;;;25.23;17.97;;;9.00;99.90;;;;;;4972119;28;20239;-75
2022/12/21 11:35:02;;;;;;;20.17;16.37;;;8.90;99.90;;;;;;4977458;28;20213;-74
2022/12/21 11:37:36;;;;;;;21.63;18.90;;;8.90;99.90;;;;;;4976590;28;20695;-76
2022/12/21 11:40:11;;;;;;;23.90;18.27;;;8.90;99.90;;;;;;4974288;28;20239;-74
2022/12/21 11:42:55;;;;;;;21.17;17.27;;;8.90;99.90;;;;;;4976124;28;20227;-72
2022/12/21 11:45:39;;;;;;;22.57;17.37;;;9.00;99.90;;;;;;4972162;28;20208;-73
2022/12/21 11:48:42;;;;;;;21.40;17.40;;;9.00;99.90;;;;;;4974391;28;20539;-71
2022/12/21 11:51:39;;;;;;;23.00;17.13;;;9.10;99.90;;;;;;4975981;28;20203;-73
2022/12/21 11:54:23;;;;;;;22.67;16.80;;;9.10;99.90;;;;;;4973292;28;20243;-74
2022/12/21 11:56:58;;;;;;;20.03;16.23;;;9.00;99.90;;;;;;4975486;28;20621;-71
2022/12/21 11:59:59;;;;;;;21.47;17.67;;;9.00;99.90;;;;;;4972983;28;20207;-71
2022/12/21 12:03:00;;;;;;;23.57;17.23;;;9.00;99.90;;;;;;4974845;28;20216;-72
2022/12/21 12:05:37;;;;;;;21.83;17.60;;;8.90;99.90;;;;;;4974203;28;20632;-73
2022/12/21 12:08:18;;;;;;;20.57;17.70;;;8.90;99.90;;;;;;4971316;28;20216;-72
2022/12/21 12:11:02;;;;;;;22.20;17.00;;;8.90;99.90;;;;;;4975867;28;20228;-73
2022/12/21 12:13:37;;;;;;;22.77;18.27;;;8.90;99.90;;;;;;4976043;28;20201;-72
2022/12/21 12:16:24;;;;;;;24.60;19.53;;;9.00;99.90;;;;;;4973876;28;20275;-71
2022/12/21 12:19:20;;;;;;;22.53;18.00;;;8.90;99.90;;;;;;4977232;28;20215;-72
2022/12/21 12:21:49;;;;;;;23.07;17.87;;;8.80;99.90;;;;;;4985580;28;20207;-74
2022/12/21 12:24:54;;;;;;;22.63;18.07;;;8.80;99.90;;;;;;4985226;28;20214;-71
2022/12/21 12:27:41;;;;;;;22.17;18.90;;;8.80;99.90;;;;;;4989210;28;20227;-70
2022/12/21 12:30:17;;;;;;;25.00;18.47;;;8.80;99.90;;;;;;4984336;28;20200;-72
2022/12/21 12:33:14;;;;;;;23.03;18.10;;;8.80;99.90;;;;;;4984358;28;20208;-70
2022/12/21 12:36:02;;;;;;;23.47;19.13;;;8.80;99.90;;;;;;4988181;28;20189;-72
2022/12/21 12:38:33;;;;;;;25.90;19.67;;;8.80;99.90;;;;;;4990332;28;20650;-76
2022/12/21 12:41:37;;;;;;;21.83;19.53;;;8.80;99.90;;;;;;4986917;28;20706;-70
2022/12/21 12:44:32;;;;;;;23.87;18.77;;;8.70;99.90;;;;;;4985548;28;20198;-72
2022/12/21 12:47:16;;;;;;;25.63;19.37;;;8.70;99.90;;;;;;4988420;28;20212;-73
2022/12/21 12:50:00;;;;;;;26.23;18.73;;;8.70;99.90;;;;;;4987288;28;20668;-69
2022/12/21 12:52:48;;;;;;;24.33;19.70;;;8.70;99.90;;;;;;4980743;28;20226;-72
2022/12/21 12:55:39;;;;;;;20.27;18.07;;;8.70;99.90;;;;;;4978843;28;20247;-74
2022/12/21 12:58:26;;;;;;;22.17;19.03;;;8.70;99.90;;;;;;4986629;28;20296;-74
2022/12/21 13:01:03;;;;;;;23.00;18.43;;;8.90;99.90;;;;;;4987696;28;20318;-74
2022/12/21 13:03:35;;;;;;;21.10;18.20;;;8.90;99.90;;;;;;4978608;28;20312;-73
2022/12/21 13:06:19;;;;;;;23.13;18.20;;;8.90;99.90;;;;;;4976762;28;20197;-73
2022/12/21 13:09:12;;;;;;;22.87;18.40;;;8.90;99.90;;;;;;4978855;28;20624;-73
2022/12/21 13:12:10;;;;;;;23.47;17.37;;;8.90;99.90;;;;;;4988942;28;20675;-79